sensor_id;sensor_type;location;lat;lon;timestamp;P1;durP1;ratioP1;P2;durP2;ratioP2
6832;SDS011;3454;42.654;23.378;2022-12-16T00:02:00;83.30;;;35.33;;
6832;SDS011;3454;42.654;23.378;2022-12-16T00:04:26;82.33;;;34.43;;
6832;SDS011;3454;42.654;23.378;2022-12-16T00:06:51;114.07;;;37.97;;
6832;SDS011;3454;42.654;23.378;2022-12-16T00:09:17;92.37;;;37.87;;
6832;SDS011;3454;42.654;23.378;2022-12-16T00:11:42;96.77;;;36.67;;
6832;SDS011;3454;42.654;23.378;2022-12-16T00:14:08;68.53;;;33.03;;
6832;SDS011;3454;42.654;23.378;2022-12-16T00:16:33;130.60;;;37.67;;
6832;SDS011;3454;42.654;23.378;2022-12-16T00:18:59;85.57;;;33.60;;
6832;SDS011;3454;42.654;23.378;2022-12-16T00:21:24;82.03;;;33.80;;
6832;SDS011;3454;42.654;23.378;2022-12-16T00:23:53;107.90;;;40.37;;
6832;SDS011;3454;42.654;23.378;2022-12-16T00:26:20;83.03;;;39.53;;
6832;SDS011;3454;42.654;23.378;2022-12-16T00:28:46;81.47;;;37.67;;
6832;SDS011;3454;42.654;23.378;2022-12-16T00:31:11;69.53;;;33.67;;
6832;SDS011;3454;42.654;23.378;2022-12-16T00:33:36;98.60;;;38.80;;
6832;SDS011;3454;42.654;23.378;2022-12-16T00:36:02;72.50;;;36.73;;
6832;SDS011;3454;42.654;23.378;2022-12-16T00:38:28;80.87;;;36.17;;
6832;SDS011;3454;42.654;23.378;2022-12-16T00:40:53;82.63;;;35.43;;
6832;SDS011;3454;42.654;23.378;2022-12-16T00:43:19;85.30;;;35.07;;
6832;SDS011;3454;42.654;23.378;2022-12-16T00:45:45;91.33;;;39.83;;
6832;SDS011;3454;42.654;23.378;2022-12-16T00:48:11;79.43;;;36.03;;
6832;SDS011;3454;42.654;23.378;2022-12-16T00:50:36;88.10;;;40.00;;
6832;SDS011;3454;42.654;23.378;2022-12-16T00:53:02;91.77;;;41.77;;
6832;SDS011;3454;42.654;23.378;2022-12-16T00:55:28;85.03;;;40.80;;
6832;SDS011;3454;42.654;23.378;2022-12-16T00:57:54;73.97;;;36.80;;
6832;SDS011;3454;42.654;23.378;2022-12-16T01:00:20;93.63;;;43.33;;
6832;SDS011;3454;42.654;23.378;2022-12-16T01:02:46;89.33;;;43.87;;
6832;SDS011;3454;42.654;23.378;2022-12-16T01:05:15;99.47;;;44.57;;
6832;SDS011;3454;42.654;23.378;2022-12-16T01:07:43;115.97;;;54.20;;
6832;SDS011;3454;42.654;23.378;2022-12-16T01:10:08;124.47;;;53.63;;
6832;SDS011;3454;42.654;23.378;2022-12-16T01:12:35;122.27;;;52.73;;
6832;SDS011;3454;42.654;23.378;2022-12-16T01:15:02;125.03;;;54.43;;
6832;SDS011;3454;42.654;23.378;2022-12-16T01:17:30;122.50;;;54.40;;
6832;SDS011;3454;42.654;23.378;2022-12-16T01:19:55;117.53;;;53.60;;
6832;SDS011;3454;42.654;23.378;2022-12-16T01:22:21;138.10;;;58.63;;
6832;SDS011;3454;42.654;23.378;2022-12-16T01:24:47;148.87;;;59.43;;
6832;SDS011;3454;42.654;23.378;2022-12-16T01:27:13;136.23;;;57.37;;
6832;SDS011;3454;42.654;23.378;2022-12-16T01:29:39;130.33;;;59.63;;
6832;SDS011;3454;42.654;23.378;2022-12-16T01:32:05;152.63;;;58.23;;
6832;SDS011;3454;42.654;23.378;2022-12-16T01:34:31;168.53;;;60.60;;
6832;SDS011;3454;42.654;23.378;2022-12-16T01:36:57;138.67;;;59.37;;
6832;SDS011;3454;42.654;23.378;2022-12-16T01:39:23;192.80;;;62.03;;
6832;SDS011;3454;42.654;23.378;2022-12-16T01:41:51;193.37;;;68.40;;
6832;SDS011;3454;42.654;23.378;2022-12-16T01:44:18;236.53;;;66.97;;
6832;SDS011;3454;42.654;23.378;2022-12-16T01:46:56;190.13;;;65.17;;
6832;SDS011;3454;42.654;23.378;2022-12-16T01:49:27;229.33;;;67.93;;
6832;SDS011;3454;42.654;23.378;2022-12-16T01:52:01;211.00;;;71.60;;
6832;SDS011;3454;42.654;23.378;2022-12-16T01:54:30;182.20;;;64.10;;
6832;SDS011;3454;42.654;23.378;2022-12-16T01:57:02;159.87;;;62.80;;
6832;SDS011;3454;42.654;23.378;2022-12-16T01:59:34;139.63;;;62.17;;
6832;SDS011;3454;42.654;23.378;2022-12-16T02:02:01;176.63;;;62.37;;
6832;SDS011;3454;42.654;23.378;2022-12-16T02:04:27;163.50;;;59.10;;
6832;SDS011;3454;42.654;23.378;2022-12-16T02:06:53;117.87;;;49.87;;
6832;SDS011;3454;42.654;23.378;2022-12-16T02:09:19;158.10;;;52.13;;
6832;SDS011;3454;42.654;23.378;2022-12-16T02:21:05;82.80;;;41.67;;
6832;SDS011;3454;42.654;23.378;2022-12-16T02:29:55;89.47;;;42.93;;
6832;SDS011;3454;42.654;23.378;2022-12-16T02:32:29;102.03;;;43.03;;
6832;SDS011;3454;42.654;23.378;2022-12-16T02:34:58;94.53;;;42.77;;
6832;SDS011;3454;42.654;23.378;2022-12-16T02:40:14;93.93;;;40.70;;
6832;SDS011;3454;42.654;23.378;2022-12-16T02:43:16;104.27;;;43.17;;
6832;SDS011;3454;42.654;23.378;2022-12-16T02:46:12;82.07;;;38.53;;
6832;SDS011;3454;42.654;23.378;2022-12-16T02:48:39;99.27;;;41.70;;
6832;SDS011;3454;42.654;23.378;2022-12-16T02:51:04;100.73;;;43.53;;
6832;SDS011;3454;42.654;23.378;2022-12-16T02:53:30;138.53;;;54.07;;
6832;SDS011;3454;42.654;23.378;2022-12-16T03:01:45;168.40;;;73.23;;
6832;SDS011;3454;42.654;23.378;2022-12-16T03:04:26;182.10;;;70.57;;
6832;SDS011;3454;42.654;23.378;2022-12-16T03:07:01;177.73;;;72.73;;
6832;SDS011;3454;42.654;23.378;2022-12-16T03:09:32;157.67;;;68.33;;
6832;SDS011;3454;42.654;23.378;2022-12-16T03:12:02;146.50;;;63.57;;
6832;SDS011;3454;42.654;23.378;2022-12-16T03:14:31;143.47;;;63.20;;
6832;SDS011;3454;42.654;23.378;2022-12-16T03:16:59;139.57;;;59.23;;
6832;SDS011;3454;42.654;23.378;2022-12-16T03:19:26;142.27;;;63.43;;
6832;SDS011;3454;42.654;23.378;2022-12-16T03:22:07;135.50;;;58.70;;
6832;SDS011;3454;42.654;23.378;2022-12-16T03:24:36;145.83;;;57.37;;
6832;SDS011;3454;42.654;23.378;2022-12-16T03:32:17;139.77;;;59.10;;
6832;SDS011;3454;42.654;23.378;2022-12-16T03:34:55;135.40;;;61.43;;
6832;SDS011;3454;42.654;23.378;2022-12-16T03:37:26;131.57;;;59.50;;
6832;SDS011;3454;42.654;23.378;2022-12-16T03:39:58;131.90;;;60.43;;
6832;SDS011;3454;42.654;23.378;2022-12-16T03:42:27;133.10;;;57.87;;
6832;SDS011;3454;42.654;23.378;2022-12-16T03:44:54;123.03;;;56.70;;
6832;SDS011;3454;42.654;23.378;2022-12-16T03:47:21;151.43;;;62.10;;
6832;SDS011;3454;42.654;23.378;2022-12-16T03:49:46;145.33;;;62.63;;
6832;SDS011;3454;42.654;23.378;2022-12-16T03:52:11;148.10;;;64.90;;
6832;SDS011;3454;42.654;23.378;2022-12-16T03:54:37;215.77;;;68.17;;
6832;SDS011;3454;42.654;23.378;2022-12-16T03:57:02;192.23;;;67.93;;
6832;SDS011;3454;42.654;23.378;2022-12-16T03:59:28;166.33;;;64.40;;
6832;SDS011;3454;42.654;23.378;2022-12-16T04:01:53;167.83;;;59.73;;
6832;SDS011;3454;42.654;23.378;2022-12-16T04:04:19;239.37;;;73.53;;
6832;SDS011;3454;42.654;23.378;2022-12-16T04:06:44;172.87;;;66.70;;
6832;SDS011;3454;42.654;23.378;2022-12-16T04:09:30;173.73;;;67.47;;
6832;SDS011;3454;42.654;23.378;2022-12-16T04:11:55;212.80;;;69.23;;
6832;SDS011;3454;42.654;23.378;2022-12-16T04:14:40;169.87;;;62.77;;
6832;SDS011;3454;42.654;23.378;2022-12-16T04:17:23;163.93;;;62.33;;
6832;SDS011;3454;42.654;23.378;2022-12-16T04:20:12;165.17;;;58.20;;
6832;SDS011;3454;42.654;23.378;2022-12-16T04:22:59;134.33;;;59.67;;
6832;SDS011;3454;42.654;23.378;2022-12-16T04:25:43;135.07;;;56.23;;
6832;SDS011;3454;42.654;23.378;2022-12-16T04:28:09;138.60;;;56.73;;
6832;SDS011;3454;42.654;23.378;2022-12-16T04:30:34;141.90;;;56.10;;
6832;SDS011;3454;42.654;23.378;2022-12-16T04:33:00;123.30;;;51.80;;
6832;SDS011;3454;42.654;23.378;2022-12-16T04:35:47;150.23;;;54.13;;
6832;SDS011;3454;42.654;23.378;2022-12-16T04:38:31;130.47;;;50.37;;
6832;SDS011;3454;42.654;23.378;2022-12-16T04:41:15;119.43;;;48.20;;
6832;SDS011;3454;42.654;23.378;2022-12-16T04:43:59;117.90;;;48.50;;
6832;SDS011;3454;42.654;23.378;2022-12-16T04:46:43;113.13;;;46.13;;
6832;SDS011;3454;42.654;23.378;2022-12-16T04:49:27;115.77;;;46.00;;
6832;SDS011;3454;42.654;23.378;2022-12-16T04:52:11;151.60;;;42.37;;
6832;SDS011;3454;42.654;23.378;2022-12-16T04:54:56;74.87;;;35.00;;
6832;SDS011;3454;42.654;23.378;2022-12-16T04:57:40;97.03;;;37.67;;
6832;SDS011;3454;42.654;23.378;2022-12-16T05:00:26;81.33;;;35.90;;
6832;SDS011;3454;42.654;23.378;2022-12-16T05:03:09;119.47;;;41.17;;
6832;SDS011;3454;42.654;23.378;2022-12-16T05:05:53;93.50;;;38.47;;
6832;SDS011;3454;42.654;23.378;2022-12-16T05:08:37;112.97;;;40.37;;
6832;SDS011;3454;42.654;23.378;2022-12-16T05:11:21;72.20;;;34.97;;
6832;SDS011;3454;42.654;23.378;2022-12-16T05:14:05;86.70;;;34.60;;
6832;SDS011;3454;42.654;23.378;2022-12-16T05:16:49;77.77;;;32.67;;
6832;SDS011;3454;42.654;23.378;2022-12-16T05:19:33;81.93;;;36.30;;
6832;SDS011;3454;42.654;23.378;2022-12-16T05:22:17;76.77;;;33.80;;
6832;SDS011;3454;42.654;23.378;2022-12-16T05:25:01;62.70;;;31.57;;
6832;SDS011;3454;42.654;23.378;2022-12-16T05:27:49;90.90;;;37.07;;
6832;SDS011;3454;42.654;23.378;2022-12-16T05:30:34;85.03;;;33.37;;
6832;SDS011;3454;42.654;23.378;2022-12-16T05:33:18;82.50;;;35.57;;
6832;SDS011;3454;42.654;23.378;2022-12-16T05:36:01;69.87;;;33.60;;
6832;SDS011;3454;42.654;23.378;2022-12-16T05:38:45;69.20;;;31.80;;
6832;SDS011;3454;42.654;23.378;2022-12-16T05:41:29;99.03;;;38.50;;
6832;SDS011;3454;42.654;23.378;2022-12-16T05:44:13;90.03;;;36.93;;
6832;SDS011;3454;42.654;23.378;2022-12-16T05:46:57;84.73;;;34.70;;
6832;SDS011;3454;42.654;23.378;2022-12-16T05:49:41;78.53;;;34.03;;
6832;SDS011;3454;42.654;23.378;2022-12-16T05:52:25;109.37;;;37.10;;
6832;SDS011;3454;42.654;23.378;2022-12-16T05:55:09;73.17;;;32.20;;
6832;SDS011;3454;42.654;23.378;2022-12-16T05:57:53;81.13;;;35.77;;
6832;SDS011;3454;42.654;23.378;2022-12-16T06:00:39;88.83;;;33.27;;
6832;SDS011;3454;42.654;23.378;2022-12-16T06:03:22;105.90;;;32.57;;
6832;SDS011;3454;42.654;23.378;2022-12-16T06:06:06;90.57;;;37.30;;
6832;SDS011;3454;42.654;23.378;2022-12-16T06:08:50;131.27;;;36.90;;
6832;SDS011;3454;42.654;23.378;2022-12-16T06:11:34;105.73;;;35.40;;
6832;SDS011;3454;42.654;23.378;2022-12-16T06:14:29;83.33;;;36.47;;
6832;SDS011;3454;42.654;23.378;2022-12-16T06:17:12;92.30;;;35.77;;
6832;SDS011;3454;42.654;23.378;2022-12-16T06:19:56;106.57;;;38.30;;
6832;SDS011;3454;42.654;23.378;2022-12-16T06:22:40;85.80;;;37.03;;
6832;SDS011;3454;42.654;23.378;2022-12-16T06:25:24;121.93;;;38.90;;
6832;SDS011;3454;42.654;23.378;2022-12-16T06:28:08;90.40;;;36.47;;
6832;SDS011;3454;42.654;23.378;2022-12-16T06:30:52;85.13;;;35.43;;
6832;SDS011;3454;42.654;23.378;2022-12-16T06:33:36;96.33;;;36.53;;
6832;SDS011;3454;42.654;23.378;2022-12-16T06:36:20;105.43;;;40.63;;
6832;SDS011;3454;42.654;23.378;2022-12-16T06:39:04;104.27;;;35.90;;
6832;SDS011;3454;42.654;23.378;2022-12-16T06:41:48;216.03;;;42.93;;
6832;SDS011;3454;42.654;23.378;2022-12-16T06:44:32;133.17;;;37.07;;
6832;SDS011;3454;42.654;23.378;2022-12-16T06:47:16;134.00;;;39.73;;
6832;SDS011;3454;42.654;23.378;2022-12-16T06:50:00;93.00;;;36.07;;
6832;SDS011;3454;42.654;23.378;2022-12-16T06:52:44;83.43;;;35.27;;
6832;SDS011;3454;42.654;23.378;2022-12-16T06:55:28;104.27;;;38.20;;
6832;SDS011;3454;42.654;23.378;2022-12-16T06:58:12;89.63;;;35.37;;
6832;SDS011;3454;42.654;23.378;2022-12-16T07:00:56;85.93;;;34.83;;
6832;SDS011;3454;42.654;23.378;2022-12-16T07:03:40;98.03;;;33.27;;
6832;SDS011;3454;42.654;23.378;2022-12-16T07:06:24;95.97;;;34.40;;
6832;SDS011;3454;42.654;23.378;2022-12-16T07:09:08;109.07;;;35.87;;
6832;SDS011;3454;42.654;23.378;2022-12-16T07:11:52;96.27;;;32.87;;
6832;SDS011;3454;42.654;23.378;2022-12-16T07:14:36;85.57;;;32.43;;
6832;SDS011;3454;42.654;23.378;2022-12-16T07:17:20;101.80;;;34.53;;
6832;SDS011;3454;42.654;23.378;2022-12-16T07:20:04;80.60;;;34.07;;
6832;SDS011;3454;42.654;23.378;2022-12-16T07:22:49;67.13;;;30.87;;
6832;SDS011;3454;42.654;23.378;2022-12-16T07:25:32;80.87;;;32.93;;
6832;SDS011;3454;42.654;23.378;2022-12-16T07:28:16;101.87;;;38.67;;
6832;SDS011;3454;42.654;23.378;2022-12-16T07:31:00;82.43;;;35.13;;
6832;SDS011;3454;42.654;23.378;2022-12-16T07:33:44;75.17;;;35.00;;
6832;SDS011;3454;42.654;23.378;2022-12-16T07:36:28;90.77;;;32.97;;
6832;SDS011;3454;42.654;23.378;2022-12-16T07:39:12;92.03;;;32.77;;
6832;SDS011;3454;42.654;23.378;2022-12-16T07:41:56;89.07;;;34.17;;
6832;SDS011;3454;42.654;23.378;2022-12-16T07:44:40;73.67;;;34.10;;
6832;SDS011;3454;42.654;23.378;2022-12-16T07:47:24;82.00;;;36.13;;
6832;SDS011;3454;42.654;23.378;2022-12-16T07:50:08;74.70;;;35.53;;
6832;SDS011;3454;42.654;23.378;2022-12-16T07:52:52;82.37;;;33.77;;
6832;SDS011;3454;42.654;23.378;2022-12-16T07:55:41;83.70;;;35.10;;
6832;SDS011;3454;42.654;23.378;2022-12-16T07:58:24;74.80;;;33.33;;
6832;SDS011;3454;42.654;23.378;2022-12-16T08:01:08;97.60;;;35.80;;
6832;SDS011;3454;42.654;23.378;2022-12-16T08:03:52;114.30;;;34.97;;
6832;SDS011;3454;42.654;23.378;2022-12-16T08:06:36;84.13;;;34.73;;
6832;SDS011;3454;42.654;23.378;2022-12-16T08:09:20;71.27;;;32.70;;
6832;SDS011;3454;42.654;23.378;2022-12-16T08:12:04;92.70;;;35.37;;
6832;SDS011;3454;42.654;23.378;2022-12-16T08:14:48;80.43;;;32.87;;
6832;SDS011;3454;42.654;23.378;2022-12-16T08:17:31;77.97;;;34.63;;
6832;SDS011;3454;42.654;23.378;2022-12-16T08:20:15;86.37;;;35.03;;
6832;SDS011;3454;42.654;23.378;2022-12-16T08:22:59;68.33;;;31.97;;
6832;SDS011;3454;42.654;23.378;2022-12-16T08:25:43;65.63;;;30.83;;
6832;SDS011;3454;42.654;23.378;2022-12-16T08:28:27;71.30;;;31.53;;
6832;SDS011;3454;42.654;23.378;2022-12-16T08:31:11;72.13;;;33.70;;
6832;SDS011;3454;42.654;23.378;2022-12-16T08:33:55;66.10;;;31.07;;
6832;SDS011;3454;42.654;23.378;2022-12-16T08:36:39;87.63;;;34.53;;
6832;SDS011;3454;42.654;23.378;2022-12-16T08:39:23;75.73;;;34.43;;
6832;SDS011;3454;42.654;23.378;2022-12-16T08:42:07;82.63;;;37.27;;
6832;SDS011;3454;42.654;23.378;2022-12-16T08:44:51;82.33;;;35.00;;
6832;SDS011;3454;42.654;23.378;2022-12-16T08:47:35;92.13;;;36.63;;
6832;SDS011;3454;42.654;23.378;2022-12-16T08:50:19;90.17;;;34.13;;
6832;SDS011;3454;42.654;23.378;2022-12-16T08:53:03;95.60;;;33.73;;
6832;SDS011;3454;42.654;23.378;2022-12-16T08:55:47;73.37;;;34.27;;
6832;SDS011;3454;42.654;23.378;2022-12-16T08:58:30;91.00;;;38.43;;
6832;SDS011;3454;42.654;23.378;2022-12-16T09:01:14;75.87;;;34.10;;
6832;SDS011;3454;42.654;23.378;2022-12-16T09:03:58;76.03;;;35.33;;
6832;SDS011;3454;42.654;23.378;2022-12-16T09:06:42;87.23;;;35.23;;
6832;SDS011;3454;42.654;23.378;2022-12-16T09:09:26;79.40;;;35.17;;
6832;SDS011;3454;42.654;23.378;2022-12-16T09:12:10;73.00;;;32.73;;
6832;SDS011;3454;42.654;23.378;2022-12-16T09:14:54;70.77;;;32.90;;
6832;SDS011;3454;42.654;23.378;2022-12-16T09:17:38;66.53;;;32.73;;
6832;SDS011;3454;42.654;23.378;2022-12-16T09:20:22;65.77;;;32.40;;
6832;SDS011;3454;42.654;23.378;2022-12-16T09:23:06;73.83;;;34.47;;
6832;SDS011;3454;42.654;23.378;2022-12-16T09:25:50;70.13;;;30.93;;
6832;SDS011;3454;42.654;23.378;2022-12-16T09:28:34;65.97;;;30.73;;
6832;SDS011;3454;42.654;23.378;2022-12-16T09:31:18;66.53;;;30.33;;
6832;SDS011;3454;42.654;23.378;2022-12-16T09:34:02;55.17;;;29.13;;
6832;SDS011;3454;42.654;23.378;2022-12-16T09:36:46;56.17;;;28.27;;
6832;SDS011;3454;42.654;23.378;2022-12-16T09:39:30;54.33;;;28.67;;
6832;SDS011;3454;42.654;23.378;2022-12-16T09:48:28;56.23;;;29.13;;
6832;SDS011;3454;42.654;23.378;2022-12-16T09:51:21;53.47;;;28.23;;
6832;SDS011;3454;42.654;23.378;2022-12-16T09:54:07;46.17;;;26.33;;
6832;SDS011;3454;42.654;23.378;2022-12-16T09:56:57;55.53;;;27.87;;
6832;SDS011;3454;42.654;23.378;2022-12-16T09:59:44;45.43;;;25.30;;
6832;SDS011;3454;42.654;23.378;2022-12-16T10:02:42;50.23;;;27.20;;
6832;SDS011;3454;42.654;23.378;2022-12-16T10:05:34;49.60;;;27.93;;
6832;SDS011;3454;42.654;23.378;2022-12-16T10:11:22;48.93;;;25.33;;
6832;SDS011;3454;42.654;23.378;2022-12-16T10:14:44;43.37;;;26.03;;
6832;SDS011;3454;42.654;23.378;2022-12-16T10:17:38;49.23;;;28.00;;
6832;SDS011;3454;42.654;23.378;2022-12-16T10:20:31;48.97;;;27.27;;
6832;SDS011;3454;42.654;23.378;2022-12-16T10:23:38;47.90;;;26.33;;
6832;SDS011;3454;42.654;23.378;2022-12-16T10:29:37;45.33;;;27.70;;
6832;SDS011;3454;42.654;23.378;2022-12-16T10:32:39;55.33;;;28.57;;
6832;SDS011;3454;42.654;23.378;2022-12-16T10:35:30;49.90;;;26.23;;
6832;SDS011;3454;42.654;23.378;2022-12-16T10:41:17;47.57;;;27.07;;
6832;SDS011;3454;42.654;23.378;2022-12-16T10:44:04;42.60;;;26.57;;
6832;SDS011;3454;42.654;23.378;2022-12-16T10:47:09;49.90;;;28.50;;
6832;SDS011;3454;42.654;23.378;2022-12-16T10:49:54;43.33;;;25.53;;
6832;SDS011;3454;42.654;23.378;2022-12-16T10:52:49;48.53;;;27.33;;
6832;SDS011;3454;42.654;23.378;2022-12-16T10:55:45;44.50;;;27.40;;
6832;SDS011;3454;42.654;23.378;2022-12-16T10:58:54;46.60;;;27.83;;
6832;SDS011;3454;42.654;23.378;2022-12-16T11:01:41;47.17;;;26.33;;
6832;SDS011;3454;42.654;23.378;2022-12-16T11:04:58;43.03;;;24.77;;
6832;SDS011;3454;42.654;23.378;2022-12-16T11:13:20;42.78;;;23.33;;
6832;SDS011;3454;42.654;23.378;2022-12-16T11:16:05;38.00;;;24.20;;
6832;SDS011;3454;42.654;23.378;2022-12-16T11:18:52;39.45;;;24.63;;
6832;SDS011;3454;42.654;23.378;2022-12-16T11:21:36;42.53;;;25.88;;
6832;SDS011;3454;42.654;23.378;2022-12-16T11:24:20;44.05;;;25.38;;
6832;SDS011;3454;42.654;23.378;2022-12-16T11:27:08;39.53;;;24.58;;
6832;SDS011;3454;42.654;23.378;2022-12-16T11:29:56;40.42;;;24.83;;
6832;SDS011;3454;42.654;23.378;2022-12-16T11:32:43;37.42;;;24.60;;
6832;SDS011;3454;42.654;23.378;2022-12-16T11:35:32;43.40;;;24.15;;
6832;SDS011;3454;42.654;23.378;2022-12-16T11:38:25;31.10;;;21.88;;
6832;SDS011;3454;42.654;23.378;2022-12-16T11:41:16;32.53;;;21.02;;
6832;SDS011;3454;42.654;23.378;2022-12-16T11:44:07;31.27;;;21.83;;
6832;SDS011;3454;42.654;23.378;2022-12-16T11:46:58;29.60;;;20.13;;
6832;SDS011;3454;42.654;23.378;2022-12-16T11:49:59;24.80;;;16.65;;
6832;SDS011;3454;42.654;23.378;2022-12-16T11:52:55;22.60;;;15.55;;
6832;SDS011;3454;42.654;23.378;2022-12-16T11:55:40;26.17;;;16.85;;
6832;SDS011;3454;42.654;23.378;2022-12-16T12:01:24;25.92;;;16.15;;
6832;SDS011;3454;42.654;23.378;2022-12-16T12:04:13;25.42;;;17.02;;
6832;SDS011;3454;42.654;23.378;2022-12-16T12:07:17;25.58;;;16.80;;
6832;SDS011;3454;42.654;23.378;2022-12-16T12:16:14;26.60;;;17.52;;
6832;SDS011;3454;42.654;23.378;2022-12-16T12:19:11;26.65;;;17.60;;
6832;SDS011;3454;42.654;23.378;2022-12-16T12:22:09;28.42;;;19.42;;
6832;SDS011;3454;42.654;23.378;2022-12-16T12:34:48;44.83;;;22.45;;
6832;SDS011;3454;42.654;23.378;2022-12-16T12:46:52;29.98;;;17.35;;
6832;SDS011;3454;42.654;23.378;2022-12-16T12:49:43;29.20;;;16.50;;
6832;SDS011;3454;42.654;23.378;2022-12-16T12:58:52;14.82;;;8.27;;
6832;SDS011;3454;42.654;23.378;2022-12-16T13:01:40;11.52;;;8.15;;
6832;SDS011;3454;42.654;23.378;2022-12-16T13:04:25;10.45;;;7.80;;
6832;SDS011;3454;42.654;23.378;2022-12-16T13:07:12;12.88;;;8.18;;
6832;SDS011;3454;42.654;23.378;2022-12-16T13:16:09;11.55;;;8.43;;
6832;SDS011;3454;42.654;23.378;2022-12-16T13:22:36;14.20;;;8.57;;
6832;SDS011;3454;42.654;23.378;2022-12-16T13:28:19;12.93;;;8.35;;
6832;SDS011;3454;42.654;23.378;2022-12-16T13:31:14;13.60;;;8.40;;
6832;SDS011;3454;42.654;23.378;2022-12-16T13:34:04;21.77;;;12.55;;
6832;SDS011;3454;42.654;23.378;2022-12-16T13:36:54;25.60;;;13.95;;
6832;SDS011;3454;42.654;23.378;2022-12-16T13:39:41;28.55;;;16.98;;
6832;SDS011;3454;42.654;23.378;2022-12-16T13:42:34;31.00;;;17.63;;
6832;SDS011;3454;42.654;23.378;2022-12-16T13:45:33;29.20;;;15.80;;
6832;SDS011;3454;42.654;23.378;2022-12-16T13:48:26;23.35;;;14.40;;
6832;SDS011;3454;42.654;23.378;2022-12-16T13:57:17;18.77;;;12.52;;
6832;SDS011;3454;42.654;23.378;2022-12-16T14:00:03;17.15;;;11.25;;
6832;SDS011;3454;42.654;23.378;2022-12-16T14:02:49;13.10;;;9.60;;
6832;SDS011;3454;42.654;23.378;2022-12-16T14:05:36;14.75;;;8.55;;
6832;SDS011;3454;42.654;23.378;2022-12-16T14:08:25;13.77;;;8.27;;
6832;SDS011;3454;42.654;23.378;2022-12-16T14:11:38;14.98;;;9.55;;
6832;SDS011;3454;42.654;23.378;2022-12-16T14:14:36;16.50;;;10.75;;
6832;SDS011;3454;42.654;23.378;2022-12-16T14:17:41;18.47;;;11.73;;
6832;SDS011;3454;42.654;23.378;2022-12-16T14:20:36;31.60;;;16.95;;
6832;SDS011;3454;42.654;23.378;2022-12-16T14:23:32;28.10;;;16.73;;
6832;SDS011;3454;42.654;23.378;2022-12-16T14:26:20;32.25;;;18.20;;
6832;SDS011;3454;42.654;23.378;2022-12-16T14:29:13;30.65;;;18.05;;
6832;SDS011;3454;42.654;23.378;2022-12-16T14:35:17;40.67;;;19.90;;
6832;SDS011;3454;42.654;23.378;2022-12-16T14:41:10;35.47;;;21.08;;
6832;SDS011;3454;42.654;23.378;2022-12-16T14:43:58;34.88;;;20.10;;
6832;SDS011;3454;42.654;23.378;2022-12-16T14:46:47;32.93;;;19.27;;
6832;SDS011;3454;42.654;23.378;2022-12-16T14:49:33;34.00;;;19.13;;
6832;SDS011;3454;42.654;23.378;2022-12-16T14:55:15;40.42;;;20.05;;
6832;SDS011;3454;42.654;23.378;2022-12-16T14:58:10;40.07;;;21.57;;
6832;SDS011;3454;42.654;23.378;2022-12-16T15:00:59;39.50;;;20.90;;
6832;SDS011;3454;42.654;23.378;2022-12-16T15:03:47;37.17;;;20.20;;
6832;SDS011;3454;42.654;23.378;2022-12-16T15:06:33;38.95;;;19.13;;
6832;SDS011;3454;42.654;23.378;2022-12-16T15:12:14;24.90;;;12.20;;
6832;SDS011;3454;42.654;23.378;2022-12-16T15:15:02;17.80;;;9.10;;
6832;SDS011;3454;42.654;23.378;2022-12-16T15:17:51;17.40;;;10.27;;
6832;SDS011;3454;42.654;23.378;2022-12-16T15:20:49;13.50;;;7.77;;
6832;SDS011;3454;42.654;23.378;2022-12-16T15:23:37;14.93;;;8.57;;
6832;SDS011;3454;42.654;23.378;2022-12-16T15:26:24;13.93;;;7.90;;
6832;SDS011;3454;42.654;23.378;2022-12-16T15:29:26;11.03;;;6.90;;
6832;SDS011;3454;42.654;23.378;2022-12-16T15:32:27;12.13;;;7.27;;
6832;SDS011;3454;42.654;23.378;2022-12-16T15:40:59;13.30;;;6.07;;
6832;SDS011;3454;42.654;23.378;2022-12-16T15:43:44;7.90;;;5.27;;
6832;SDS011;3454;42.654;23.378;2022-12-16T15:46:30;11.33;;;5.67;;
6832;SDS011;3454;42.654;23.378;2022-12-16T15:49:32;8.53;;;5.60;;
6832;SDS011;3454;42.654;23.378;2022-12-16T15:55:24;9.30;;;5.87;;
6832;SDS011;3454;42.654;23.378;2022-12-16T15:58:36;6.70;;;4.20;;
6832;SDS011;3454;42.654;23.378;2022-12-16T16:01:22;9.23;;;5.13;;
6832;SDS011;3454;42.654;23.378;2022-12-16T16:04:22;10.93;;;6.17;;
6832;SDS011;3454;42.654;23.378;2022-12-16T16:07:22;10.53;;;5.80;;
6832;SDS011;3454;42.654;23.378;2022-12-16T16:10:17;8.87;;;5.40;;
6832;SDS011;3454;42.654;23.378;2022-12-16T16:13:13;10.17;;;6.63;;
6832;SDS011;3454;42.654;23.378;2022-12-16T16:15:58;9.93;;;5.57;;
6832;SDS011;3454;42.654;23.378;2022-12-16T16:18:42;13.03;;;6.17;;
6832;SDS011;3454;42.654;23.378;2022-12-16T16:21:27;14.90;;;6.30;;
6832;SDS011;3454;42.654;23.378;2022-12-16T16:24:11;10.60;;;5.10;;
6832;SDS011;3454;42.654;23.378;2022-12-16T16:26:57;15.67;;;9.37;;
6832;SDS011;3454;42.654;23.378;2022-12-16T16:29:43;9.53;;;5.63;;
6832;SDS011;3454;42.654;23.378;2022-12-16T16:32:27;12.00;;;5.83;;
6832;SDS011;3454;42.654;23.378;2022-12-16T16:35:11;9.97;;;6.00;;
6832;SDS011;3454;42.654;23.378;2022-12-16T16:37:56;16.17;;;6.27;;
6832;SDS011;3454;42.654;23.378;2022-12-16T16:40:41;9.77;;;5.97;;
6832;SDS011;3454;42.654;23.378;2022-12-16T16:43:26;9.33;;;5.17;;
6832;SDS011;3454;42.654;23.378;2022-12-16T16:49:01;9.47;;;5.57;;
6832;SDS011;3454;42.654;23.378;2022-12-16T16:51:45;10.43;;;5.97;;
6832;SDS011;3454;42.654;23.378;2022-12-16T16:54:45;12.30;;;6.57;;
6832;SDS011;3454;42.654;23.378;2022-12-16T16:57:31;12.50;;;6.23;;
6832;SDS011;3454;42.654;23.378;2022-12-16T17:00:17;10.40;;;6.63;;
6832;SDS011;3454;42.654;23.378;2022-12-16T17:03:01;10.90;;;6.73;;
6832;SDS011;3454;42.654;23.378;2022-12-16T17:05:45;8.67;;;5.67;;
6832;SDS011;3454;42.654;23.378;2022-12-16T17:08:29;10.57;;;6.70;;
6832;SDS011;3454;42.654;23.378;2022-12-16T17:11:17;10.43;;;6.20;;
6832;SDS011;3454;42.654;23.378;2022-12-16T17:14:03;13.87;;;6.60;;
6832;SDS011;3454;42.654;23.378;2022-12-16T17:16:48;13.77;;;6.63;;
6832;SDS011;3454;42.654;23.378;2022-12-16T17:19:32;13.17;;;6.20;;
6832;SDS011;3454;42.654;23.378;2022-12-16T17:22:16;14.80;;;6.97;;
6832;SDS011;3454;42.654;23.378;2022-12-16T17:25:00;14.10;;;6.50;;
6832;SDS011;3454;42.654;23.378;2022-12-16T17:27:44;10.73;;;6.30;;
6832;SDS011;3454;42.654;23.378;2022-12-16T17:30:28;16.50;;;7.13;;
6832;SDS011;3454;42.654;23.378;2022-12-16T17:33:13;11.83;;;7.80;;
6832;SDS011;3454;42.654;23.378;2022-12-16T17:35:57;14.93;;;7.13;;
6832;SDS011;3454;42.654;23.378;2022-12-16T17:38:42;10.83;;;6.63;;
6832;SDS011;3454;42.654;23.378;2022-12-16T17:41:27;17.60;;;7.47;;
6832;SDS011;3454;42.654;23.378;2022-12-16T17:44:24;17.00;;;7.77;;
6832;SDS011;3454;42.654;23.378;2022-12-16T17:47:08;18.37;;;8.57;;
6832;SDS011;3454;42.654;23.378;2022-12-16T17:49:52;13.17;;;8.23;;
6832;SDS011;3454;42.654;23.378;2022-12-16T17:52:35;18.50;;;7.93;;
6832;SDS011;3454;42.654;23.378;2022-12-16T17:55:19;16.73;;;9.20;;
6832;SDS011;3454;42.654;23.378;2022-12-16T17:58:04;19.00;;;9.20;;
6832;SDS011;3454;42.654;23.378;2022-12-16T18:00:48;13.37;;;8.33;;
6832;SDS011;3454;42.654;23.378;2022-12-16T18:03:32;15.47;;;8.90;;
6832;SDS011;3454;42.654;23.378;2022-12-16T18:06:16;18.10;;;9.93;;
6832;SDS011;3454;42.654;23.378;2022-12-16T18:09:00;19.27;;;9.33;;
6832;SDS011;3454;42.654;23.378;2022-12-16T18:11:44;14.43;;;9.33;;